Time;durP1;ratioP1;P1;durP2;ratioP2;P2;SDS_P1;SDS_P2;PMS_P1;PMS_P2;Temp;Humidity;BMP_temperature;BMP_pressure;BME280_temperature;BME280_humidity;BME280_pressure;Samples;Min_cycle;Max_cycle;Signal;HPM_P1;HPM_P2
2023/01/22 00:01:47;;;;;;;133.27;83.55;;;;;;;11.17;76.20;99126.94;4848858;29;20056;-60
2023/01/22 00:04:42;;;;;;;142.52;83.35;;;;;;;11.08;76.76;99131.53;4859967;29;20056;-61
2023/01/22 00:07:18;;;;;;;143.63;83.10;;;;;;;11.01;77.84;99140.41;4866477;29;20061;-63
2023/01/22 00:10:08;;;;;;;147.48;82.63;;;;;;;10.89;77.49;99141.91;4859473;29;20053;-59
2023/01/22 00:12:50;;;;;;;138.93;83.35;;;;;;;10.81;77.87;99140.13;4856818;29;20057;-61
2023/01/22 00:15:39;;;;;;;145.65;83.35;;;;;;;10.89;78.29;99140.03;4864979;29;20064;-61
2023/01/22 00:18:28;;;;;;;148.10;83.63;;;;;;;10.78;77.72;99137.88;4865932;29;20141;-60
2023/01/22 00:21:11;;;;;;;146.93;83.95;;;;;;;10.66;78.44;99134.88;4861755;29;20037;-59
2023/01/22 00:24:00;;;;;;;143.85;81.50;;;;;;;10.61;78.63;99147.00;4867401;29;20108;-59
2023/01/22 00:26:42;;;;;;;142.48;82.45;;;;;;;10.47;79.32;99156.56;4852966;29;20058;-60
2023/01/22 00:29:31;;;;;;;150.85;84.70;;;;;;;10.43;79.13;99157.94;4836730;29;20077;-59
2023/01/22 00:32:20;;;;;;;140.38;81.43;;;;;;;10.38;79.69;99164.75;4855625;29;20146;-59
2023/01/22 00:35:02;;;;;;;133.38;82.60;;;;;;;10.74;79.07;99169.22;4856041;29;20063;-59
2023/01/22 00:37:51;;;;;;;135.25;79.32;;;;;;;10.99;77.94;99161.78;4855580;29;20044;-60
2023/01/22 00:40:40;;;;;;;140.80;81.10;;;;;;;10.82;78.11;99157.69;4863549;29;20502;-60
2023/01/22 00:43:30;;;;;;;123.70;74.38;;;;;;;10.96;78.12;99161.34;4856006;29;20065;-60
2023/01/22 00:46:14;;;;;;;136.35;75.55;;;;;;;10.96;77.69;99159.53;4853710;29;20141;-60
2023/01/22 00:49:03;;;;;;;119.95;72.30;;;;;;;10.89;78.16;99166.53;4840076;29;20189;-60
2023/01/22 00:51:58;;;;;;;120.75;72.88;;;;;;;10.93;77.66;99170.47;4867436;29;20052;-60
2023/01/22 00:54:47;;;;;;;117.38;69.68;;;;;;;10.99;77.27;99174.22;4857625;29;20077;-60
2023/01/22 00:57:36;;;;;;;118.05;66.63;;;;;;;10.91;77.65;99164.53;4835301;29;20498;-60
2023/01/22 01:00:18;;;;;;;109.65;61.92;;;;;;;10.75;78.01;99178.78;4856141;29;20049;-61
2023/01/22 01:03:25;;;;;;;102.90;61.83;;;;;;;10.94;77.94;99180.06;4856791;29;20045;-60
2023/01/22 01:06:14;;;;;;;106.70;61.78;;;;;;;10.98;77.65;99185.81;4868935;29;20068;-62
2023/01/22 01:09:04;;;;;;;109.80;62.30;;;;;;;10.86;77.66;99193.41;4848036;29;20136;-59
2023/01/22 01:11:53;;;;;;;103.20;60.70;;;;;;;11.17;78.16;99187.91;4866765;29;20057;-61
2023/01/22 01:14:42;;;;;;;106.70;59.40;;;;;;;11.20;77.55;99195.50;4857528;29;20058;-59
2023/01/22 01:17:24;;;;;;;100.95;58.95;;;;;;;11.37;77.22;99189.00;4853229;29;20081;-61
2023/01/22 01:20:14;;;;;;;101.18;59.08;;;;;;;11.37;76.60;99194.31;4861385;29;20053;-60
2023/01/22 01:22:56;;;;;;;99.07;56.50;;;;;;;11.35;76.31;99204.28;4858124;29;20481;-59
2023/01/22 01:25:48;;;;;;;101.88;57.90;;;;;;;11.37;76.63;99204.91;4864274;29;20068;-60
2023/01/22 01:28:30;;;;;;;95.43;54.63;;;;;;;11.59;75.52;99205.78;4867169;29;20540;-60
2023/01/22 01:31:21;;;;;;;100.82;54.90;;;;;;;11.59;75.39;99197.84;4868265;29;20056;-59
2023/01/22 01:34:10;;;;;;;91.68;52.35;;;;;;;11.42;75.17;99194.56;4857443;29;20045;-60
2023/01/22 01:36:52;;;;;;;91.82;52.78;;;;;;;11.39;75.21;99207.38;4853635;29;20064;-60
2023/01/22 01:39:41;;;;;;;92.65;53.22;;;;;;;11.24;75.42;99207.41;4865218;29;20053;-60
2023/01/22 01:42:38;;;;;;;88.53;49.50;;;;;;;11.13;75.44;99211.31;4862306;29;20049;-60
2023/01/22 01:45:33;;;;;;;;;;;;;;;11.26;75.48;99218.63;4867937;29;20049;-61
2023/01/22 01:48:44;;;;;;;87.25;48.25;;;;;;;11.27;75.32;99213.16;4870643;29;20460;-61
2023/01/22 01:51:35;;;;;;;80.38;47.60;;;;;;;11.30;74.93;99213.78;4870341;29;20108;-60
2023/01/22 01:54:24;;;;;;;82.25;45.30;;;;;;;11.25;75.04;99220.47;4852264;29;20042;-61
2023/01/22 01:57:18;;;;;;;78.10;44.63;;;;;;;11.14;74.53;99214.81;4872215;29;20448;-60
2023/01/22 02:00:09;;;;;;;79.85;45.45;;;;;;;11.18;74.47;99219.56;4858950;29;20133;-60
2023/01/22 02:03:06;;;;;;;77.30;43.72;;;;;;;11.11;74.23;99231.06;4861307;29;20144;-60
2023/01/22 02:05:42;;;;;;;76.82;43.92;;;;;;;11.26;75.35;99222.09;4866601;29;20041;-59
2023/01/22 02:08:31;;;;;;;71.20;42.60;;;;;;;11.25;73.95;99223.09;4871239;29;20057;-59
2023/01/22 02:11:15;;;;;;;78.68;41.33;;;;;;;11.33;74.24;99229.34;4870429;29;20072;-60
2023/01/22 02:14:16;;;;;;;75.03;40.70;;;;;;;11.34;73.99;99234.44;4851576;29;20057;-60
2023/01/22 02:17:19;;;;;;;69.65;41.22;;;;;;;11.36;73.94;99236.91;4857180;29;20109;-60
2023/01/22 02:20:09;;;;;;;81.25;41.10;;;;;;;11.22;73.62;99243.88;4862800;29;20632;-63
2023/01/22 02:22:51;;;;;;;65.32;39.40;;;;;;;11.31;73.87;99237.47;4860297;29;20053;-60
2023/01/22 02:25:46;;;;;;;65.00;36.03;;;;;;;11.29;73.52;99242.13;4861378;29;20045;-59
2023/01/22 02:28:22;;;;;;;58.47;36.33;;;;;;;11.30;73.18;99240.28;4855484;29;20057;-61
2023/01/22 02:31:10;;;;;;;65.32;37.50;;;;;;;11.27;73.82;99250.28;4859980;29;20144;-60
2023/01/22 02:33:52;;;;;;;64.95;37.58;;;;;;;11.33;73.85;99251.34;4869760;29;20052;-61
2023/01/22 02:36:41;;;;;;;65.47;37.65;;;;;;;11.35;73.06;99257.31;4836603;29;20053;-60
2023/01/22 02:39:23;;;;;;;65.10;37.83;;;;;;;11.40;73.31;99260.22;4836602;29;20145;-61
2023/01/22 02:42:20;;;;;;;68.63;36.58;;;;;;;11.28;72.73;99267.00;4848504;29;20133;-59
2023/01/22 02:44:56;;;;;;;59.90;36.53;;;;;;;11.23;72.35;99266.72;4866983;29;20053;-59
2023/01/22 02:47:45;;;;;;;67.22;37.83;;;;;;;11.41;72.98;99271.66;4872993;29;20045;-60
2023/01/22 02:50:27;;;;;;;76.32;42.03;;;;;;;11.41;73.17;99272.50;4866173;29;20470;-60
2023/01/22 02:53:31;;;;;;;77.35;43.47;;;;;;;11.49;73.79;99277.69;4860255;29;20052;-60
2023/01/22 02:56:20;;;;;;;76.63;44.05;;;;;;;11.52;72.53;99273.84;4856073;29;20152;-59
2023/01/22 02:59:06;;;;;;;72.60;41.75;;;;;;;11.54;72.77;99275.31;4856511;29;20056;-62
2023/01/22 03:02:02;;;;;;;70.28;37.15;;;;;;;11.77;73.10;99277.88;4858716;29;20374;-61
2023/01/22 03:04:38;;;;;;;68.43;38.33;;;;;;;11.68;72.71;99285.06;4854195;29;20049;-60
2023/01/22 03:07:40;;;;;;;68.83;37.20;;;;;;;11.99;72.06;99294.69;4869051;29;20128;-61
2023/01/22 03:10:29;;;;;;;61.95;37.30;;;;;;;11.85;69.64;99301.66;4845195;29;20276;-60
2023/01/22 03:22:34;;;;;;;66.55;36.65;;;;;;;12.23;71.44;99304.94;4864269;29;20060;-60
2023/01/22 03:25:16;;;;;;;61.80;35.88;;;;;;;12.31;70.41;99318.09;4856224;29;20061;-61
2023/01/22 03:28:15;;;;;;;65.18;35.90;;;;;;;12.48;69.75;99319.50;4853927;29;20438;-60
2023/01/22 03:31:01;;;;;;;65.75;34.53;;;;;;;12.77;67.42;99323.88;4868494;29;20056;-60
2023/01/22 03:33:50;;;;;;;60.40;32.92;;;;;;;13.06;65.82;99329.00;4860903;29;20072;-61
2023/01/22 03:36:32;;;;;;;59.28;33.30;;;;;;;13.42;64.69;99336.88;4862859;29;20069;-61
2023/01/22 03:39:21;;;;;;;60.95;30.77;;;;;;;13.66;62.84;99337.41;4856805;29;20087;-62
2023/01/22 03:42:10;;;;;;;57.03;31.33;;;;;;;14.02;62.46;99340.66;4850665;29;20137;-62
2023/01/22 03:44:59;;;;;;;60.35;32.20;;;;;;;14.20;61.58;99345.44;4868413;29;20053;-61
2023/01/22 03:47:44;;;;;;;54.33;31.65;;;;;;;14.56;61.11;99361.97;4856457;29;20047;-61
2023/01/22 03:50:38;;;;;;;55.13;31.92;;;;;;;14.94;59.70;99356.91;4862556;29;20048;-61
2023/01/22 03:53:20;;;;;;;54.67;32.90;;;;;;;15.20;58.98;99362.25;4870897;29;20366;-60
2023/01/22 03:56:12;;;;;;;54.05;33.17;;;;;;;15.23;58.76;99371.66;4853966;29;20081;-61
2023/01/22 03:59:06;;;;;;;58.55;33.28;;;;;;;15.40;59.49;99380.91;4823669;29;20056;-59
2023/01/22 04:01:55;;;;;;;53.40;31.58;;;;;;;15.73;58.55;99375.56;4865324;29;20828;-60
2023/01/22 04:04:46;;;;;;;54.03;32.95;;;;;;;15.83;55.22;99389.31;4852449;29;20073;-60
2023/01/22 04:07:35;;;;;;;57.55;33.28;;;;;;;16.44;54.53;99386.19;4862390;29;20070;-61
2023/01/22 04:10:19;;;;;;;49.60;31.70;;;;;;;16.55;55.13;99393.56;4860783;29;20136;-60
2023/01/22 04:13:09;;;;;;;58.95;32.58;;;;;;;16.80;53.80;99391.78;4866590;29;20500;-63
2023/01/22 04:15:53;;;;;;;52.75;28.88;;;;;;;16.87;52.79;99394.41;4854878;29;20055;-61
2023/01/22 04:19:08;;;;;;;50.95;29.15;;;;;;;16.90;51.66;99407.38;4847786;29;20053;-60
2023/01/22 04:22:20;;;;;;;47.33;27.90;;;;;;;17.04;51.77;99415.06;4839564;29;20078;-60
2023/01/22 04:25:03;;;;;;;40.92;28.77;;;;;;;17.26;52.36;99409.38;4853889;29;20084;-61
2023/01/22 04:27:52;;;;;;;48.60;27.73;;;;;;;16.90;49.64;99410.03;4860644;29;20061;-63
2023/01/22 04:30:34;;;;;;;49.97;29.05;;;;;;;16.83;49.82;99411.91;4857620;29;20045;-60
2023/01/22 04:33:47;;;;;;;50.30;30.77;;;;;;;17.08;50.28;99424.31;4856917;29;20135;-62
2023/01/22 04:36:38;;;;;;;48.83;28.80;;;;;;;17.17;51.39;99429.41;4863698;29;20053;-61
2023/01/22 04:39:30;;;;;;;46.42;29.02;;;;;;;17.51;49.37;99431.59;4857131;29;20147;-59
2023/01/22 04:42:12;;;;;;;48.63;29.23;;;;;;;17.55;49.16;99426.63;4869273;29;20376;-60
2023/01/22 04:45:08;;;;;;;49.05;29.63;;;;;;;17.69;48.64;99428.19;4861701;29;20056;-59
2023/01/22 04:47:46;;;;;;;46.88;29.75;;;;;;;17.40;47.95;99437.66;4864311;29;20053;-59
2023/01/22 04:50:36;;;;;;;49.92;28.80;;;;;;;17.73;49.49;99438.25;4856742;29;20865;-59
2023/01/22 04:53:19;;;;;;;52.20;31.13;;;;;;;17.82;50.76;99442.28;4856013;29;20061;-61
2023/01/22 04:56:08;;;;;;;58.78;31.77;;;;;;;17.81;49.29;99446.00;4861722;29;20501;-63
2023/01/22 04:58:51;;;;;;;53.97;30.17;;;;;;;18.29;49.81;99446.09;4857470;29;20053;-59
2023/01/22 05:01:41;;;;;;;51.25;29.83;;;;;;;18.03;48.96;99457.09;4871456;29;20061;-60
2023/01/22 05:04:30;;;;;;;43.47;29.35;;;;;;;18.17;47.95;99452.44;4863765;29;20072;-59
2023/01/22 05:07:19;;;;;;;52.55;28.17;;;;;;;18.46;48.40;99457.03;4856379;29;20061;-61
2023/01/22 05:10:01;;;;;;;40.72;25.05;;;;;;;18.44;47.95;99453.78;4835004;29;20053;-60
2023/01/22 05:12:50;;;;;;;35.95;24.20;;;;;;;18.67;46.99;99461.16;4850332;29;20077;-60
2023/01/22 05:15:33;;;;;;;36.97;24.53;;;;;;;18.33;48.32;99455.34;4854125;29;20052;-58
2023/01/22 05:18:29;;;;;;;44.30;23.55;;;;;;;18.18;47.64;99454.06;4866706;29;20380;-61
2023/01/22 05:21:05;;;;;;;36.33;22.98;;;;;;;18.25;46.51;99455.63;4856536;29;20060;-59
2023/01/22 05:23:54;;;;;;;38.88;24.63;;;;;;;18.80;46.12;99456.44;4865778;29;20055;-61
2023/01/22 05:26:36;;;;;;;47.92;25.10;;;;;;;18.82;46.61;99457.00;4861322;29;20072;-60
2023/01/22 05:29:32;;;;;;;40.47;25.90;;;;;;;18.33;46.47;99451.81;4870373;29;20049;-60
2023/01/22 05:32:34;;;;;;;42.97;26.15;;;;;;;18.77;47.13;99445.31;4843617;29;20053;-60
2023/01/22 05:35:24;;;;;;;36.50;25.58;;;;;;;19.24;45.87;99454.38;4854398;29;20133;-63
2023/01/22 05:38:13;;;;;;;40.70;23.92;;;;;;;18.24;45.54;99443.25;4851920;29;20774;-59
2023/01/22 05:41:10;;;;;;;40.22;24.52;;;;;;;18.12;45.89;99430.81;4860666;29;20053;-64
2023/01/22 05:43:47;;;;;;;38.13;24.55;;;;;;;18.67;44.56;99431.66;4852241;29;20053;-62
2023/01/22 05:46:44;;;;;;;37.80;22.10;;;;;;;18.47;45.14;99431.84;4856783;29;20048;-63
2023/01/22 05:49:46;;;;;;;35.05;21.80;;;;;;;18.76;46.23;99425.72;4842281;29;20049;-60
2023/01/22 05:52:41;;;;;;;33.63;20.83;;;;;;;18.81;42.89;99428.53;4859450;29;20041;-60
2023/01/22 05:55:32;;;;;;;31.83;20.88;;;;;;;19.07;44.23;99427.34;4859673;29;20071;-60
2023/01/22 05:58:14;;;;;;;28.80;19.80;;;;;;;19.41;44.37;99428.47;4856095;29;20142;-65
2023/01/22 06:01:04;;;;;;;26.75;18.15;;;;;;;19.91;42.93;99420.81;4859266;29;20141;-65
2023/01/22 06:03:57;;;;;;;38.10;20.35;;;;;;;19.63;41.44;99420.69;4851268;29;20045;-66
2023/01/22 06:06:46;;;;;;;38.30;22.00;;;;;;;19.97;42.24;99425.22;4859928;29;20105;-64
2023/01/22 06:09:30;;;;;;;38.78;24.83;;;;;;;19.65;43.31;99421.25;4859569;29;20156;-62
2023/01/22 06:12:28;;;;;;;30.77;19.73;;;;;;;18.98;42.36;99422.53;4863124;29;20084;-65
2023/01/22 06:15:04;;;;;;;32.92;18.83;;;;;;;19.02;43.57;99418.34;4863368;29;20050;-61
2023/01/22 06:18:01;;;;;;;27.52;17.65;;;;;;;19.63;44.64;99415.31;4850320;29;20427;-61
2023/01/22 06:20:44;;;;;;;25.08;17.60;;;;;;;19.73;42.55;99411.00;4858454;29;20053;-64
2023/01/22 06:23:33;;;;;;;29.88;18.77;;;;;;;19.92;42.06;99408.97;4864064;29;20053;-63
2023/01/22 06:26:23;;;;;;;28.52;16.75;;;;;;;20.29;41.27;99408.69;4863555;29;20054;-65
2023/01/22 06:29:21;;;;;;;30.42;17.48;;;;;;;19.90;41.71;99416.47;4847712;29;20892;-65
2023/01/22 06:31:57;;;;;;;28.05;16.85;;;;;;;19.72;41.53;99403.97;4852504;29;20614;-61
2023/01/22 06:34:46;;;;;;;23.70;16.80;;;;;;;19.67;41.43;99401.19;4854831;29;20056;-60
2023/01/22 06:37:29;;;;;;;27.65;15.57;;;;;;;20.17;42.19;99403.34;4867267;29;20140;-67
2023/01/22 06:40:19;;;;;;;23.20;14.90;;;;;;;19.93;41.70;99399.03;4858584;29;20523;-60
2023/01/22 06:43:12;;;;;;;22.23;14.65;;;;;;;19.71;40.58;99394.28;4860680;29;20049;-62
2023/01/22 06:45:56;;;;;;;22.80;14.32;;;;;;;19.85;41.87;99391.34;4859759;29;20699;-64
2023/01/22 06:49:08;;;;;;;22.73;15.25;;;;;;;20.02;42.53;99386.88;4859475;29;20049;-64
2023/01/22 06:51:57;;;;;;;19.55;14.52;;;;;;;19.84;42.36;99392.38;4857283;29;20049;-62
2023/01/22 06:54:52;;;;;;;20.20;13.75;;;;;;;19.76;40.64;99382.81;4865706;29;20148;-65
2023/01/22 06:57:28;;;;;;;20.73;13.57;;;;;;;19.52;41.14;99382.00;4864818;29;20043;-65
2023/01/22 07:00:23;;;;;;;25.73;15.02;;;;;;;19.30;42.12;99370.16;4874169;29;20057;-65
2023/01/22 07:03:12;;;;;;;26.95;15.43;;;;;;;19.32;43.03;99378.81;4862692;29;20060;-65
2023/01/22 07:06:05;;;;;;;23.95;15.90;;;;;;;19.55;43.00;99373.50;4866291;29;20044;-64
2023/01/22 07:09:01;;;;;;;24.13;14.63;;;;;;;19.53;42.01;99369.38;4852130;29;20041;-65
2023/01/22 07:11:37;;;;;;;20.40;13.57;;;;;;;19.49;41.17;99360.97;4855382;29;20053;-63
2023/01/22 07:14:26;;;;;;;23.20;12.75;;;;;;;19.60;39.52;99360.19;4853166;29;20041;-64
2023/01/22 07:17:17;;;;;;;21.67;14.18;;;;;;;19.52;40.38;99351.63;4850647;29;20064;-64
2023/01/22 07:20:13;;;;;;;24.00;13.77;;;;;;;19.65;42.63;99346.00;4837066;29;20045;-62
2023/01/22 07:22:50;;;;;;;19.38;13.50;;;;;;;19.70;40.70;99340.75;4851098;29;20077;-62
2023/01/22 07:25:40;;;;;;;27.55;13.18;;;;;;;19.97;40.91;99328.44;4849316;29;20474;-63
2023/01/22 07:28:23;;;;;;;25.50;14.20;;;;;;;20.08;40.54;99327.59;4850693;29;20057;-61
2023/01/22 07:31:13;;;;;;;23.75;12.45;;;;;;;20.28;40.03;99311.00;4858113;29;20144;-62
2023/01/22 07:34:01;;;;;;;19.50;11.82;;;;;;;19.98;38.90;99310.44;4851779;29;20530;-62
2023/01/22 07:36:45;;;;;;;21.85;12.40;;;;;;;19.91;38.31;99302.50;4846122;29;20798;-63
2023/01/22 07:39:34;;;;;;;23.10;14.13;;;;;;;19.29;38.91;99309.47;4848867;29;20053;-62
2023/01/22 07:42:23;;;;;;;30.20;14.60;;;;;;;19.55;39.62;99303.63;4858413;29;20415;-62
2023/01/22 07:45:05;;;;;;;22.58;14.45;;;;;;;19.72;38.41;99296.47;4856387;29;20050;-61
2023/01/22 07:47:56;;;;;;;28.65;15.52;;;;;;;19.77;40.62;99293.06;4851658;29;20136;-62
2023/01/22 07:50:39;;;;;;;26.60;15.52;;;;;;;19.81;41.43;99285.34;4852573;29;20049;-62
2023/01/22 07:53:35;;;;;;;20.45;12.88;;;;;;;19.75;39.43;99281.72;4848823;29;20601;-61
2023/01/22 07:56:24;;;;;;;22.88;14.23;;;;;;;19.87;39.16;99265.59;4864825;29;20053;-62
2023/01/22 07:59:06;;;;;;;18.92;10.40;;;;;;;19.76;36.58;99269.94;4848623;29;20147;-61
2023/01/22 08:02:02;;;;;;;20.55;12.10;;;;;;;19.79;37.88;99265.94;4854934;29;20049;-61
2023/01/22 08:04:38;;;;;;;27.85;13.60;;;;;;;19.70;38.51;99255.56;4857641;29;20053;-63
2023/01/22 08:07:29;;;;;;;28.88;15.07;;;;;;;19.68;39.20;99256.88;4866460;29;20053;-63
2023/01/22 08:10:13;;;;;;;32.92;16.70;;;;;;;19.61;40.15;99259.66;4851371;29;20054;-62
2023/01/22 08:13:02;;;;;;;29.42;17.13;;;;;;;19.59;40.33;99253.72;4857402;29;20160;-62
2023/01/22 08:15:51;;;;;;;24.17;15.02;;;;;;;19.54;40.74;99256.31;4863633;29;20045;-64
2023/01/22 08:18:33;;;;;;;34.97;17.27;;;;;;;19.52;39.79;99247.66;4855692;29;20052;-66
2023/01/22 08:21:22;;;;;;;30.05;16.98;;;;;;;19.26;39.83;99248.13;4857273;29;20045;-66
2023/01/22 08:24:04;;;;;;;28.95;12.93;;;;;;;19.49;38.50;99245.44;4855794;29;20056;-63
2023/01/22 08:26:55;;;;;;;24.60;13.93;;;;;;;19.63;39.11;99246.00;4859327;29;20141;-64
2023/01/22 08:29:44;;;;;;;32.38;15.38;;;;;;;19.58;38.43;99240.53;4862632;29;20474;-63
2023/01/22 08:32:26;;;;;;;29.90;17.08;;;;;;;19.74;41.22;99240.59;4859159;29;20071;-64
2023/01/22 08:35:15;;;;;;;29.60;17.83;;;;;;;19.71;40.89;99227.63;4859950;29;20057;-65
2023/01/22 08:38:05;;;;;;;24.98;15.30;;;;;;;19.47;38.69;99225.25;4857770;29;20144;-63
2023/01/22 08:41:00;;;;;;;23.80;13.93;;;;;;;19.42;39.00;99223.25;4860181;29;20570;-65
2023/01/22 08:43:35;;;;;;;27.77;14.48;;;;;;;19.57;40.63;99220.91;4851804;29;20053;-64
2023/01/22 08:46:24;;;;;;;32.03;15.80;;;;;;;19.43;39.91;99224.91;4834456;29;20136;-60
2023/01/22 08:49:13;;;;;;;28.42;14.95;;;;;;;19.59;39.57;99224.19;4839172;29;20041;-63
2023/01/22 08:51:55;;;;;;;24.40;14.73;;;;;;;19.55;39.80;99228.41;4843112;29;20055;-60
2023/01/22 08:54:44;;;;;;;26.63;15.88;;;;;;;19.55;42.85;99222.19;4842185;29;20045;-61
2023/01/22 08:57:33;;;;;;;27.13;15.48;;;;;;;19.33;40.33;99219.31;4846650;29;20057;-63
2023/01/22 09:00:22;;;;;;;25.52;13.77;;;;;;;19.42;40.58;99219.75;4837814;29;20061;-61
2023/01/22 09:03:04;;;;;;;20.33;13.43;;;;;;;19.32;40.12;99219.53;4857463;29;20814;-62
2023/01/22 09:05:53;;;;;;;20.20;12.63;;;;;;;19.17;38.40;99228.06;4862785;29;20140;-61
2023/01/22 09:08:35;;;;;;;18.77;12.32;;;;;;;19.11;39.54;99226.31;4846680;29;20137;-61
2023/01/22 09:11:24;;;;;;;19.20;13.13;;;;;;;19.32;41.07;99231.09;4851450;29;20085;-60
2023/01/22 09:14:08;;;;;;;24.73;12.80;;;;;;;19.38;40.71;99224.78;4860189;29;20489;-61
2023/01/22 09:16:57;;;;;;;18.50;10.68;;;;;;;19.34;38.24;99230.88;4864020;29;20053;-61
2023/01/22 09:19:46;;;;;;;16.80;9.13;;;;;;;19.09;37.11;99231.09;4834348;29;20537;-60
2023/01/22 09:22:35;;;;;;;12.73;7.15;;;;;;;18.99;35.08;99225.50;4842707;29;20065;-61
2023/01/22 09:25:17;;;;;;;12.13;7.80;;;;;;;19.22;37.70;99228.16;4868727;29;20064;-62
2023/01/22 09:28:11;;;;;;;15.70;9.98;;;;;;;19.21;37.97;99219.28;4851170;29;20481;-60
2023/01/22 09:30:53;;;;;;;10.20;6.78;;;;;;;19.21;35.98;99223.84;4854133;29;20118;-61
2023/01/22 09:33:42;;;;;;;11.57;7.32;;;;;;;19.29;36.58;99221.63;4855895;29;20065;-61
2023/01/22 09:36:24;;;;;;;15.82;8.45;;;;;;;19.18;37.38;99210.91;4858818;29;20057;-62
2023/01/22 09:39:13;;;;;;;21.08;9.82;;;;;;;19.04;37.71;99213.00;4851182;29;20049;-61
2023/01/22 09:41:57;;;;;;;14.68;7.50;;;;;;;19.05;38.70;99217.34;4869952;29;20053;-59
2023/01/22 09:44:51;;;;;;;16.70;6.68;;;;;;;18.95;36.46;99211.72;4856554;29;20063;-59
2023/01/22 09:47:46;;;;;;;14.10;7.60;;;;;;;18.96;37.41;99215.22;4853728;29;20369;-61
2023/01/22 09:50:35;;;;;;;13.70;8.30;;;;;;;19.01;38.77;99220.72;4859043;29;20292;-60
2023/01/22 09:53:31;;;;;;;19.08;8.27;;;;;;;19.00;36.62;99222.59;4849647;29;20456;-60
2023/01/22 09:56:13;;;;;;;12.85;6.10;;;;;;;19.05;35.77;99219.19;4855871;29;20045;-62
2023/01/22 09:59:05;;;;;;;13.18;5.97;;;;;;;19.17;35.45;99225.38;4858098;29;20053;-62
2023/01/22 10:01:54;;;;;;;13.88;6.15;;;;;;;19.16;33.90;99211.13;4860734;29;20064;-62
2023/01/22 10:04:56;;;;;;;12.63;8.68;;;;;;;19.08;36.84;99218.72;4861050;29;20546;-63
2023/01/22 10:07:39;;;;;;;20.88;10.55;;;;;;;19.01;39.14;99212.66;4845042;29;20053;-65
2023/01/22 10:10:35;;;;;;;13.60;8.88;;;;;;;19.04;38.62;99221.06;4856953;29;20053;-65
2023/01/22 10:13:10;;;;;;;15.45;10.25;;;;;;;19.08;36.43;99216.03;4862702;29;20132;-67
2023/01/22 10:16:05;;;;;;;18.75;9.85;;;;;;;18.98;37.82;99219.34;4855311;29;20113;-66
2023/01/22 10:19:04;;;;;;;19.88;9.68;;;;;;;19.04;38.00;99215.69;4862737;29;20046;-65
2023/01/22 10:22:05;;;;;;;13.77;8.77;;;;;;;19.03;37.78;99211.38;4836492;29;20054;-65
2023/01/22 10:24:41;;;;;;;18.27;10.35;;;;;;;18.82;36.38;99199.38;4863419;29;20097;-66
2023/01/22 10:27:43;;;;;;;18.92;10.38;;;;;;;18.74;38.44;99205.09;4859257;29;20077;-66
2023/01/22 10:30:25;;;;;;;20.15;12.05;;;;;;;18.62;39.94;99203.44;4862970;29;20160;-65
2023/01/22 10:33:27;;;;;;;18.88;13.02;;;;;;;18.50;38.78;99199.91;4861969;29;20322;-63
2023/01/22 10:36:04;;;;;;;21.03;13.00;;;;;;;18.67;39.80;99195.53;4873197;29;20052;-65
2023/01/22 10:39:12;;;;;;;23.52;12.52;;;;;;;18.34;39.06;99196.84;4858293;29;20064;-65
2023/01/22 10:41:55;;;;;;;19.55;12.70;;;;;;;18.52;42.28;99198.63;4858329;29;20053;-66
2023/01/22 10:44:44;;;;;;;24.25;13.48;;;;;;;18.48;40.20;99202.81;4866660;29;20104;-63
2023/01/22 10:47:29;;;;;;;20.17;12.23;;;;;;;18.44;40.67;99192.78;4863231;29;20060;-64
2023/01/22 10:50:24;;;;;;;22.83;11.65;;;;;;;18.38;39.57;99197.19;4860127;29;20509;-63
2023/01/22 10:53:28;;;;;;;17.20;10.63;;;;;;;18.29;37.57;99195.88;4862301;29;20064;-63
2023/01/22 10:56:29;;;;;;;16.02;9.68;;;;;;;18.23;38.49;99210.22;4854267;29;20129;-64
2023/01/22 10:59:29;;;;;;;17.17;9.43;;;;;;;18.22;39.31;99204.03;4861427;29;20049;-62
2023/01/22 11:02:26;;;;;;;16.27;9.88;;;;;;;18.33;39.85;99205.09;4862626;29;20076;-65
2023/01/22 11:05:26;;;;;;;20.77;9.65;;;;;;;18.47;38.89;99195.81;4855303;29;20133;-64
2023/01/22 11:08:10;;;;;;;19.50;9.97;;;;;;;18.48;40.12;99202.81;4852057;29;20053;-64
2023/01/22 11:11:09;;;;;;;19.08;8.93;;;;;;;18.32;39.09;99204.28;4853294;29;20069;-63
2023/01/22 11:14:08;;;;;;;17.90;9.75;;;;;;;18.31;37.83;99202.66;4852122;29;20172;-63
2023/01/22 11:17:23;;;;;;;17.38;8.90;;;;;;;18.22;38.58;99193.31;4850833;29;20082;-59
2023/01/22 11:20:10;;;;;;;18.70;8.27;;;;;;;18.12;37.19;99193.06;4853566;29;20050;-64
2023/01/22 11:23:03;;;;;;;14.43;7.53;;;;;;;18.05;38.25;99197.72;4846044;29;20059;-62
2023/01/22 11:26:09;;;;;;;18.02;9.60;;;;;;;17.88;39.12;99204.72;4850338;29;20053;-61
2023/01/22 11:29:41;;;;;;;18.15;9.45;;;;;;;17.67;39.12;99206.03;4853967;29;20575;-65
2023/01/22 11:32:53;;;;;;;17.63;9.73;;;;;;;17.54;40.80;99200.81;4850192;29;20050;-64
2023/01/22 11:36:20;;;;;;;18.42;10.20;;;;;;;17.56;41.26;99190.72;4861135;29;20124;-61
2023/01/22 11:39:18;;;;;;;23.55;11.00;;;;;;;17.39;40.69;99203.09;4845440;29;20411;-63
2023/01/22 11:42:34;;;;;;;21.05;10.52;;;;;;;17.39;42.32;99203.09;4847414;29;20057;-63
2023/01/22 11:45:36;;;;;;;22.67;10.70;;;;;;;17.41;44.02;99206.34;4866862;29;20056;-63
2023/01/22 11:48:26;;;;;;;17.75;10.70;;;;;;;17.35;45.64;99209.91;4841834;29;20102;-64
2023/01/22 11:51:39;;;;;;;19.75;9.95;;;;;;;17.29;45.27;99206.28;4855277;29;20166;-63
2023/01/22 11:54:39;;;;;;;19.52;9.43;;;;;;;17.23;46.53;99204.47;4857405;29;20045;-62
2023/01/22 11:57:45;;;;;;;21.65;10.70;;;;;;;17.10;47.69;99214.50;4851528;29;20888;-61
2023/01/22 12:00:27;;;;;;;16.67;10.18;;;;;;;17.02;48.14;99202.25;4866888;29;20065;-60
2023/01/22 12:03:37;;;;;;;19.73;10.73;;;;;;;16.91;47.65;99203.78;4854413;29;20064;-62
2023/01/22 12:06:22;;;;;;;19.92;10.55;;;;;;;16.83;48.68;99209.41;4855842;29;20046;-61
2023/01/22 12:09:17;;;;;;;21.90;10.80;;;;;;;16.76;47.90;99206.00;4853632;29;20374;-61
2023/01/22 12:12:43;;;;;;;49.35;13.40;;;;;;;16.57;48.61;99205.13;4853468;29;20109;-61
2023/01/22 12:19:48;;;;;;;22.10;12.32;;;;;;;16.42;50.41;99206.47;4817579;29;20063;-64
2023/01/22 12:22:53;;;;;;;25.85;11.63;;;;;;;16.26;51.34;99217.69;4872167;29;20064;-64
2023/01/22 12:25:59;;;;;;;33.33;14.20;;;;;;;16.29;51.82;99219.91;4868084;29;20139;-61
2023/01/22 12:29:18;;;;;;;32.85;13.85;;;;;;;16.16;51.52;99220.81;4868523;29;20533;-64
2023/01/22 12:32:20;;;;;;;27.60;13.13;;;;;;;16.25;51.45;99216.84;4846567;29;20056;-62
2023/01/22 12:35:16;;;;;;;28.27;14.38;;;;;;;16.15;51.82;99211.19;4871055;29;20073;-63
2023/01/22 12:38:13;;;;;;;32.72;13.75;;;;;;;16.04;52.21;99225.22;4871315;29;20128;-62
2023/01/22 12:41:37;;;;;;;27.90;13.48;;;;;;;15.98;52.72;99210.03;4852534;29;20049;-62
2023/01/22 12:44:44;;;;;;;36.13;13.32;;;;;;;15.94;52.84;99224.84;4859635;29;20064;-63
2023/01/22 12:47:48;;;;;;;21.55;14.10;;;;;;;15.99;53.64;99220.50;4855095;29;20077;-62
2023/01/22 12:50:37;;;;;;;23.88;14.07;;;;;;;15.99;54.02;99228.53;4853438;29;20806;-62
2023/01/22 12:53:26;;;;;;;32.22;14.38;;;;;;;15.76;53.20;99222.88;4852084;29;20053;-63
2023/01/22 12:56:18;;;;;;;27.90;13.90;;;;;;;15.68;53.59;99231.97;4857099;29;20061;-62
2023/01/22 12:59:00;;;;;;;34.67;15.13;;;;;;;15.65;53.34;99234.25;4852934;29;20470;-63
2023/01/22 13:01:49;;;;;;;35.08;16.48;;;;;;;15.76;53.69;99230.91;4871508;29;20060;-60
2023/01/22 13:04:32;;;;;;;27.63;14.85;;;;;;;15.84;54.13;99235.19;4860470;29;20057;-60
2023/01/22 13:07:42;;;;;;;29.90;15.80;;;;;;;15.70;54.48;99235.28;4862374;29;20044;-59
2023/01/22 13:10:32;;;;;;;34.08;14.35;;;;;;;15.77;54.68;99232.56;4861823;29;20049;-61
2023/01/22 13:13:30;;;;;;;29.85;14.95;;;;;;;15.63;54.36;99233.63;4858851;29;20068;-60
2023/01/22 13:16:22;;;;;;;48.30;27.70;;;;;;;15.57;55.10;99235.31;4858946;29;20121;-60
2023/01/22 13:19:22;;;;;;;49.45;27.30;;;;;;;15.42;55.21;99240.06;4859172;29;20140;-62